CheckWX is a tool to help pilots better visualize weather data.  It is not intended as a substitute for an official pre-flight weather briefing.

07:43:11 UTC

DFOO TAF
Bobo Dioulasso Airport
Bobo Dioulasso, Burkina Faso
TAF DFOO 180500Z 1806/1906 22008KT 9999 SCT016 TEMPO 1806/1812 BKN010 TEMPO 1815/1824 4000 TSRA SCT016 SCT030CB

Sep-18@
06:00 UTC

Sep-18 @ 06:00 UTC

Sep-19@
06:00 UTC

Sep-19 @ 06:00 UTC

TAF DFOO 180500Z 1806/1906 22008KT 9999 SCT016
Wind
  • 220° at 8 KTS
Cloud Levels
  • Scattered at 1,600' AGL

Sep-18@
06:00 UTC

Sep-18 @ 06:00 UTC

Sep-18@
12:00 UTC

Sep-18 @ 12:00 UTC

TEMPO 1806/1812 BKN010

Temporary

Temporary Changes expected for less than half the time period

Cloud Levels
  • Broken at 1,000' AGL

Sep-18@
15:00 UTC

Sep-18 @ 15:00 UTC

Sep-19@
00:00 UTC

Sep-19 @ 00:00 UTC

TEMPO 1815/1824 4000 TSRA SCT016 SCT030CB

Temporary

Temporary Changes expected for less than half the time period

Conditions
Thunderstorm, Rain
Cloud Levels
  • Scattered at 1,600' AGL
  • Scattered at 3,000' AGL